Time;durP1;ratioP1;P1;durP2;ratioP2;P2;SDS_P1;SDS_P2;PMS_P1;PMS_P2;Temp;Humidity;BMP_temperature;BMP_pressure;BME280_temperature;BME280_humidity;BME280_pressure;Samples;Min_cycle;Max_cycle;Signal;HPM_P1;HPM_P2
2021/01/15 00:01:30;;;;;;;;;;;27.90;32.10;;;;;;5073597;28;19908;-53
2021/01/15 00:03:55;;;;;;;;;;;27.90;32.00;;;;;;5087935;28;19916;-51
2021/01/15 00:06:21;;;;;;;;;;;27.90;32.00;;;;;;5072930;28;19952;-52
2021/01/15 00:08:46;;;;;;;;;;;27.90;32.00;;;;;;5073017;28;19920;-52
2021/01/15 00:11:29;;;;;;;;;;;27.90;32.20;;;;;;5072842;28;20382;-52
2021/01/15 00:13:55;;;;;;;;;;;27.90;31.90;;;;;;5072854;28;19932;-52
2021/01/15 00:16:21;;;;;;;;;;;27.90;32.10;;;;;;5072760;28;19909;-51
2021/01/15 00:18:47;;;;;;;;;;;27.90;32.00;;;;;;5075364;28;19928;-53
2021/01/15 00:21:28;;;;;;;;;;;27.90;32.00;;;;;;5072808;28;20367;-52
2021/01/15 00:23:54;;;;;;;;;;;27.90;32.00;;;;;;5052602;28;19913;-52
2021/01/15 00:26:20;;;;;;;;;;;27.90;32.00;;;;;;5052260;28;19916;-52
2021/01/15 00:28:46;;;;;;;;;;;27.90;32.60;;;;;;5052849;28;19909;-52
2021/01/15 00:31:11;;;;;;;;;;;27.90;32.00;;;;;;5052562;28;19921;-52
2021/01/15 00:33:37;;;;;;;;;;;27.90;32.00;;;;;;5052536;28;19913;-52
2021/01/15 00:36:02;;;;;;;;;;;27.90;32.10;;;;;;5052591;28;20006;-56
2021/01/15 00:38:28;;;;;;;;;;;27.90;31.90;;;;;;5089932;28;19992;-52
2021/01/15 00:40:59;;;;;;;;;;;27.90;31.90;;;;;;5092699;28;19994;-52
2021/01/15 00:43:25;;;;;;;;;;;27.90;32.00;;;;;;5092844;28;20053;-52
2021/01/15 00:45:50;;;;;;;;;;;27.90;31.90;;;;;;5092563;28;20370;-52
2021/01/15 00:48:16;;;;;;;;;;;27.90;32.00;;;;;;5092804;28;19995;-52
2021/01/15 00:50:41;;;;;;;;;;;27.80;31.90;;;;;;5092888;28;20298;-54
2021/01/15 00:53:06;;;;;;;;;;;27.90;32.20;;;;;;5074547;28;19913;-52
2021/01/15 00:55:32;;;;;;;;;;;27.80;31.90;;;;;;5087462;28;19916;-52
2021/01/15 00:57:58;;;;;;;;;;;27.90;32.00;;;;;;5092761;28;20282;-52
2021/01/15 01:00:23;;;;;;;;;;;27.80;31.90;;;;;;5092653;28;20334;-52
2021/01/15 01:02:49;;;;;;;;;;;27.90;32.00;;;;;;5092807;28;19958;-52
2021/01/15 01:05:14;;;;;;;;;;;27.80;31.90;;;;;;5092476;28;19912;-52
2021/01/15 01:07:43;;;;;;;;;;;27.90;32.00;;;;;;5092830;28;19995;-52
2021/01/15 01:10:12;;;;;;;;;;;27.80;32.00;;;;;;5078649;28;19923;-52
2021/01/15 01:12:40;;;;;;;;;;;27.80;31.90;;;;;;5090229;28;19970;-51
2021/01/15 01:15:06;;;;;;;;;;;27.90;31.80;;;;;;5092719;28;19947;-52
2021/01/15 01:17:32;;;;;;;;;;;27.80;31.80;;;;;;5092598;28;19908;-51
2021/01/15 01:19:57;;;;;;;;;;;27.80;31.70;;;;;;5092335;28;19926;-52
2021/01/15 01:22:23;;;;;;;;;;;27.80;31.90;;;;;;5092514;28;19919;-52
2021/01/15 01:24:48;;;;;;;;;;;27.90;32.00;;;;;;5083962;28;19985;-52
2021/01/15 01:27:14;;;;;;;;;;;27.90;31.90;;;;;;5072414;28;19916;-52
2021/01/15 01:29:39;;;;;;;;;;;27.90;31.70;;;;;;5072384;28;19909;-52
2021/01/15 01:32:05;;;;;;;;;;;27.80;31.90;;;;;;5071938;28;19924;-51
2021/01/15 01:34:30;;;;;;;;;;;27.80;31.90;;;;;;5072060;28;20034;-52
2021/01/15 01:36:56;;;;;;;;;;;27.80;32.00;;;;;;5073152;28;20270;-52
2021/01/15 01:39:21;;;;;;;;;;;27.80;31.80;;;;;;5081632;28;19927;-52
2021/01/15 01:41:47;;;;;;;;;;;27.80;32.00;;;;;;5095822;28;20463;-52
2021/01/15 01:44:12;;;;;;;;;;;27.80;31.70;;;;;;5095996;28;19916;-52
2021/01/15 01:46:38;;;;;;;;;;;27.80;32.00;;;;;;5095707;28;19908;-52
2021/01/15 01:49:03;;;;;;;;;;;27.80;31.90;;;;;;5094855;28;19918;-52
2021/01/15 01:51:28;;;;;;;;;;;27.80;31.90;;;;;;5096059;28;19919;-52
2021/01/15 01:53:54;;;;;;;;;;;27.80;31.80;;;;;;5089593;28;20358;-52
2021/01/15 01:56:19;;;;;;;;;;;27.80;31.90;;;;;;5091345;28;19915;-52
2021/01/15 01:58:45;;;;;;;;;;;27.80;31.90;;;;;;5090907;28;20431;-52
2021/01/15 02:01:10;;;;;;;;;;;27.80;31.60;;;;;;5091010;28;19962;-53
2021/01/15 02:03:36;;;;;;;;;;;27.80;31.80;;;;;;5075184;28;19913;-51
2021/01/15 02:06:03;;;;;;;;;;;27.80;31.90;;;;;;5075296;28;19999;-52
2021/01/15 02:08:28;;;;;;;;;;;27.80;31.70;;;;;;5078178;28;19920;-52
2021/01/15 02:10:59;;;;;;;;;;;27.80;32.60;;;;;;5095622;28;20320;-53
2021/01/15 02:13:37;;;;;;;;;;;27.80;31.80;;;;;;5095558;28;19955;-52
2021/01/15 02:16:03;;;;;;;;;;;27.80;31.80;;;;;;5095596;28;19947;-53
2021/01/15 02:18:36;;;;;;;;;;;27.80;31.90;;;;;;5078374;28;19913;-52
2021/01/15 02:21:21;;;;;;;;;;;27.80;31.90;;;;;;5093965;28;20411;-53
2021/01/15 02:23:46;;;;;;;;;;;27.80;31.80;;;;;;5095387;28;19912;-52
2021/01/15 02:26:12;;;;;;;;;;;27.80;32.00;;;;;;5093859;28;20336;-53
2021/01/15 02:28:59;;;;;;;;;;;27.80;31.80;;;;;;5095037;28;19908;-52
2021/01/15 02:31:28;;;;;;;;;;;27.80;31.70;;;;;;5094813;28;19924;-52
2021/01/15 02:34:12;;;;;;;;;;;27.80;31.80;;;;;;5088873;28;19966;-51
2021/01/15 02:36:58;;;;;;;;;;;27.80;31.80;;;;;;5074739;28;19908;-51
2021/01/15 02:39:26;;;;;;;;;;;27.80;31.80;;;;;;5070283;28;19963;-52
2021/01/15 02:41:53;;;;;;;;;;;27.80;31.70;;;;;;5074516;28;19908;-52
2021/01/15 02:44:18;;;;;;;;;;;27.80;31.70;;;;;;5074627;28;19935;-51
2021/01/15 02:46:54;;;;;;;;;;;27.80;31.60;;;;;;5087632;28;20371;-53
2021/01/15 02:49:19;;;;;;;;;;;27.80;31.80;;;;;;5054076;28;20322;-52
2021/01/15 02:51:45;;;;;;;;;;;27.80;31.80;;;;;;5054690;28;19932;-53
2021/01/15 02:54:10;;;;;;;;;;;27.80;31.70;;;;;;5069707;28;19920;-52
2021/01/15 02:56:36;;;;;;;;;;;27.80;31.70;;;;;;5054477;28;19999;-52
2021/01/15 02:59:02;;;;;;;;;;;27.80;31.70;;;;;;5054159;28;20278;-52
2021/01/15 03:01:29;;;;;;;;;;;27.70;31.60;;;;;;5077636;28;19912;-51
2021/01/15 03:04:08;;;;;;;;;;;27.70;31.90;;;;;;5092547;28;20374;-52
2021/01/15 03:06:44;;;;;;;;;;;27.70;31.70;;;;;;5094378;28;19916;-52
2021/01/15 03:09:09;;;;;;;;;;;27.80;31.80;;;;;;5093309;28;19908;-51
2021/01/15 03:11:35;;;;;;;;;;;27.80;31.70;;;;;;5093053;28;20765;-52
2021/01/15 03:14:01;;;;;;;;;;;27.70;31.60;;;;;;5094297;28;19912;-53
2021/01/15 03:16:27;;;;;;;;;;;27.70;31.70;;;;;;5094169;28;19914;-52
2021/01/15 03:18:53;;;;;;;;;;;27.80;31.60;;;;;;5076146;28;19920;-52
2021/01/15 03:21:18;;;;;;;;;;;27.70;31.60;;;;;;5093101;28;20430;-52
2021/01/15 03:23:44;;;;;;;;;;;27.80;31.70;;;;;;5092718;28;19963;-52
2021/01/15 03:26:09;;;;;;;;;;;27.80;31.70;;;;;;5094170;28;19908;-51
2021/01/15 03:28:35;;;;;;;;;;;27.70;31.60;;;;;;5093921;28;20325;-52
2021/01/15 03:31:00;;;;;;;;;;;27.70;31.60;;;;;;5093667;28;19924;-51
2021/01/15 03:33:26;;;;;;;;;;;27.70;31.70;;;;;;5092135;28;19919;-51
2021/01/15 03:35:51;;;;;;;;;;;27.80;31.60;;;;;;5074527;28;19913;-52
2021/01/15 03:38:17;;;;;;;;;;;27.80;31.70;;;;;;5073538;28;19908;-52
2021/01/15 03:40:45;;;;;;;;;;;27.70;31.60;;;;;;5073542;28;20252;-53
2021/01/15 03:43:11;;;;;;;;;;;27.70;31.60;;;;;;5073254;28;19915;-52
2021/01/15 03:45:36;;;;;;;;;;;27.80;31.70;;;;;;5073582;28;19914;-52
2021/01/15 03:48:02;;;;;;;;;;;27.70;31.40;;;;;;5073357;28;20350;-52
2021/01/15 03:50:27;;;;;;;;;;;27.80;31.40;;;;;;5077203;28;20357;-53
2021/01/15 03:52:53;;;;;;;;;;;27.70;31.20;;;;;;5093353;28;20377;-53
2021/01/15 03:55:18;;;;;;;;;;;27.70;31.20;;;;;;5093378;28;19908;-54
2021/01/15 03:57:44;;;;;;;;;;;27.70;31.10;;;;;;5093331;28;19912;-52
2021/01/15 04:00:10;;;;;;;;;;;27.70;31.20;;;;;;5092633;28;19966;-53
2021/01/15 04:02:36;;;;;;;;;;;27.70;31.20;;;;;;5093692;28;19951;-51
2021/01/15 04:05:01;;;;;;;;;;;27.70;31.30;;;;;;5090712;28;19924;-53
2021/01/15 04:07:28;;;;;;;;;;;27.70;31.20;;;;;;5079412;28;19925;-52
2021/01/15 04:09:53;;;;;;;;;;;27.70;31.20;;;;;;5093131;28;19963;-52
2021/01/15 04:12:19;;;;;;;;;;;27.70;31.00;;;;;;5084272;28;19963;-53
2021/01/15 04:14:44;;;;;;;;;;;27.70;31.10;;;;;;5072922;28;20420;-52
2021/01/15 04:17:10;;;;;;;;;;;27.60;31.00;;;;;;5073091;28;20359;-51
2021/01/15 04:19:35;;;;;;;;;;;27.70;30.90;;;;;;5072979;28;19959;-53
2021/01/15 04:22:01;;;;;;;;;;;27.70;31.20;;;;;;5089355;28;20435;-52
2021/01/15 04:24:26;;;;;;;;;;;27.60;31.00;;;;;;5093199;28;19912;-52
2021/01/15 04:26:56;;;;;;;;;;;27.70;30.80;;;;;;5093213;28;20370;-52
2021/01/15 04:29:21;;;;;;;;;;;27.60;30.90;;;;;;5093166;28;19994;-51
2021/01/15 04:31:47;;;;;;;;;;;27.60;30.90;;;;;;5092753;28;19950;-53
2021/01/15 04:34:14;;;;;;;;;;;27.70;30.90;;;;;;5092174;28;20225;-52
2021/01/15 04:36:39;;;;;;;;;;;27.70;31.00;;;;;;5076468;28;19912;-51
2021/01/15 04:39:05;;;;;;;;;;;27.70;30.80;;;;;;5072766;28;19920;-52
2021/01/15 04:41:31;;;;;;;;;;;27.60;30.90;;;;;;5072558;28;19962;-52
2021/01/15 04:43:56;;;;;;;;;;;27.60;30.80;;;;;;5072458;28;19960;-52
2021/01/15 04:46:22;;;;;;;;;;;27.60;31.00;;;;;;5072567;28;19913;-52
2021/01/15 04:48:50;;;;;;;;;;;27.70;31.00;;;;;;5072545;28;20323;-51
2021/01/15 04:51:19;;;;;;;;;;;27.60;30.80;;;;;;5086595;28;19916;-52
2021/01/15 04:54:17;;;;;;;;;;;27.70;30.90;;;;;;5092519;28;20259;-52
2021/01/15 04:56:54;;;;;;;;;;;27.70;30.80;;;;;;5069256;28;19950;-52
2021/01/15 04:59:20;;;;;;;;;;;27.60;30.60;;;;;;5092843;28;19917;-53
2021/01/15 05:01:46;;;;;;;;;;;27.60;31.00;;;;;;5092534;28;19919;-51
2021/01/15 05:04:11;;;;;;;;;;;27.60;30.80;;;;;;5092832;28;19908;-52
2021/01/15 05:06:47;;;;;;;;;;;27.60;30.80;;;;;;5073049;28;20259;-52
2021/01/15 05:09:16;;;;;;;;;;;27.60;30.80;;;;;;5072668;28;19950;-52
2021/01/15 05:11:41;;;;;;;;;;;27.60;31.00;;;;;;5074429;28;19916;-52
2021/01/15 05:14:07;;;;;;;;;;;27.60;30.80;;;;;;5076450;28;19909;-52
2021/01/15 05:16:33;;;;;;;;;;;27.70;30.80;;;;;;5076059;28;20349;-53
2021/01/15 05:18:59;;;;;;;;;;;27.60;30.30;;;;;;5076205;28;19973;-52
2021/01/15 05:21:25;;;;;;;;;;;27.70;30.40;;;;;;5071770;28;20050;-52
2021/01/15 05:23:51;;;;;;;;;;;27.60;30.40;;;;;;5055956;28;19971;-52
2021/01/15 05:26:17;;;;;;;;;;;27.60;30.20;;;;;;5056067;28;19978;-52
2021/01/15 05:28:43;;;;;;;;;;;27.60;30.30;;;;;;5071332;28;20628;-51
2021/01/15 05:31:08;;;;;;;;;;;27.60;30.30;;;;;;5055796;28;19924;-51
2021/01/15 05:33:34;;;;;;;;;;;27.60;30.50;;;;;;5055758;28;20252;-52
2021/01/15 05:35:59;;;;;;;;;;;27.70;30.50;;;;;;5090245;28;19908;-52
2021/01/15 05:38:25;;;;;;;;;;;27.60;30.50;;;;;;5075574;28;20293;-52
2021/01/15 05:40:51;;;;;;;;;;;27.60;30.10;;;;;;5075586;28;19912;-52
2021/01/15 05:43:26;;;;;;;;;;;27.60;30.20;;;;;;5075808;28;20004;-52
2021/01/15 05:46:10;;;;;;;;;;;27.60;30.20;;;;;;5075606;28;19908;-52
2021/01/15 05:48:42;;;;;;;;;;;27.60;30.60;;;;;;5075739;28;19920;-52
2021/01/15 05:51:20;;;;;;;;;;;27.60;30.30;;;;;;5080349;28;20358;-53
2021/01/15 05:53:46;;;;;;;;;;;27.60;30.00;;;;;;5095575;28;19916;-52
2021/01/15 05:56:11;;;;;;;;;;;27.60;30.10;;;;;;5094803;28;19914;-52
2021/01/15 05:58:37;;;;;;;;;;;27.60;30.20;;;;;;5095494;28;20309;-52
2021/01/15 06:01:02;;;;;;;;;;;27.60;30.70;;;;;;5095535;28;19915;-52
2021/01/15 06:03:28;;;;;;;;;;;27.60;30.20;;;;;;5095694;28;19916;-52
2021/01/15 06:05:53;;;;;;;;;;;27.60;30.30;;;;;;5076781;28;20065;-52
2021/01/15 06:08:19;;;;;;;;;;;27.60;30.50;;;;;;5082623;28;19917;-53
2021/01/15 06:10:45;;;;;;;;;;;27.60;30.10;;;;;;5070891;28;20007;-52
2021/01/15 06:13:11;;;;;;;;;;;27.60;30.30;;;;;;5055393;28;19909;-53
2021/01/15 06:15:48;;;;;;;;;;;27.60;30.40;;;;;;5055286;28;19909;-52
2021/01/15 06:18:17;;;;;;;;;;;27.60;30.50;;;;;;5055281;28;19908;-52
2021/01/15 06:20:43;;;;;;;;;;;27.60;30.40;;;;;;5082500;28;19920;-52
2021/01/15 06:23:11;;;;;;;;;;;27.60;30.30;;;;;;5094653;28;20248;-52
2021/01/15 06:25:36;;;;;;;;;;;27.60;30.10;;;;;;5093807;28;20282;-52
2021/01/15 06:28:03;;;;;;;;;;;27.60;30.30;;;;;;5088501;28;19962;-53
2021/01/15 06:30:29;;;;;;;;;;;27.60;30.20;;;;;;5078177;28;19920;-53
2021/01/15 06:32:55;;;;;;;;;;;27.60;30.40;;;;;;5074674;28;20408;-52
2021/01/15 06:35:24;;;;;;;;;;;27.60;30.20;;;;;;5074832;28;20003;-52
2021/01/15 06:37:59;;;;;;;;;;;27.60;30.30;;;;;;5074561;28;19919;-57
2021/01/15 06:40:34;;;;;;;;;;;27.60;30.60;;;;;;5080331;28;20300;-55
2021/01/15 06:43:00;;;;;;;;;;;27.60;30.90;;;;;;5081051;28;19958;-55
2021/01/15 06:45:25;;;;;;;;;;;27.50;29.60;;;;;;5088489;28;19917;-53
2021/01/15 06:47:53;;;;;;;;;;;27.50;29.60;;;;;;5090073;28;19908;-51
2021/01/15 06:50:18;;;;;;;;;;;27.50;29.20;;;;;;5074696;28;19908;-51
2021/01/15 06:52:48;;;;;;;;;;;26.90;24.40;;;;;;5082314;28;20424;-50
2021/01/15 06:55:15;;;;;;;;;;;25.70;23.60;;;;;;5094532;28;20404;-50
2021/01/15 06:57:44;;;;;;;;;;;24.70;24.10;;;;;;5094878;28;19965;-54
2021/01/15 07:00:09;;;;;;;;;;;24.20;26.80;;;;;;5093132;28;20362;-54
2021/01/15 07:02:54;;;;;;;;;;;24.80;27.70;;;;;;5092496;28;19919;-56
2021/01/15 07:05:21;;;;;;;;;;;25.40;27.30;;;;;;5094644;28;19912;-59
2021/01/15 07:07:47;;;;;;;;;;;26.00;27.30;;;;;;5093070;28;19912;-59
2021/01/15 07:10:12;;;;;;;;;;;26.40;27.00;;;;;;5079807;28;19976;-60
2021/01/15 07:12:41;;;;;;;;;;;26.70;26.60;;;;;;5073768;28;19927;-61
2021/01/15 07:15:14;;;;;;;;;;;27.00;27.20;;;;;;5074131;28;19909;-61
2021/01/15 07:17:46;;;;;;;;;;;27.20;27.30;;;;;;5073714;28;19916;-63
2021/01/15 07:20:13;;;;;;;;;;;27.20;27.30;;;;;;5073990;28;19916;-64
2021/01/15 07:22:59;;;;;;;;;;;27.30;27.40;;;;;;5073709;28;20038;-64
2021/01/15 07:25:24;;;;;;;;;;;27.40;27.40;;;;;;5086105;28;20409;-59
2021/01/15 07:27:50;;;;;;;;;;;27.60;27.50;;;;;;5073879;28;19912;-64
2021/01/15 07:30:20;;;;;;;;;;;27.90;28.00;;;;;;5073659;28;20389;-60
2021/01/15 07:32:52;;;;;;;;;;;28.00;28.00;;;;;;5079882;28;19912;-59
2021/01/15 07:35:18;;;;;;;;;;;28.20;28.40;;;;;;5092765;28;19945;-62
2021/01/15 07:37:43;;;;;;;;;;;28.40;28.10;;;;;;5093565;28;19912;-64
2021/01/15 07:40:16;;;;;;;;;;;28.60;28.00;;;;;;5082002;28;19927;-59
2021/01/15 07:42:43;;;;;;;;;;;28.70;28.30;;;;;;5089440;28;19916;-59
2021/01/15 07:45:09;;;;;;;;;;;28.80;28.40;;;;;;5086587;28;19919;-58
2021/01/15 07:47:37;;;;;;;;;;;29.00;28.10;;;;;;5093639;28;19931;-57
2021/01/15 07:50:06;;;;;;;;;;;29.10;28.10;;;;;;5084433;28;19912;-57
2021/01/15 07:52:33;;;;;;;;;;;29.10;27.90;;;;;;5072897;28;19920;-57
2021/01/15 07:55:02;;;;;;;;;;;29.30;27.90;;;;;;5073079;28;19912;-56
2021/01/15 07:57:28;;;;;;;;;;;29.40;28.20;;;;;;5079390;28;19913;-56
2021/01/15 07:59:54;;;;;;;;;;;29.50;31.00;;;;;;5082042;28;19921;-61
2021/01/15 08:02:19;;;;;;;;;;;29.50;32.20;;;;;;5075695;28;19912;-60
2021/01/15 08:04:45;;;;;;;;;;;29.50;32.30;;;;;;5089301;28;19912;-65
2021/01/15 08:07:14;;;;;;;;;;;29.50;32.90;;;;;;5072878;28;19913;-66
2021/01/15 08:09:40;;;;;;;;;;;29.30;32.10;;;;;;5073645;28;19971;-66
2021/01/15 08:12:06;;;;;;;;;;;29.40;31.70;;;;;;5079285;28;19916;-74
2021/01/15 08:14:31;;;;;;;;;;;29.40;33.30;;;;;;5093199;28;20014;-75
2021/01/15 08:16:57;;;;;;;;;;;29.40;33.40;;;;;;5077869;28;19909;-65
2021/01/15 08:19:22;;;;;;;;;;;29.40;34.00;;;;;;5083731;28;20019;-67
2021/01/15 08:21:48;;;;;;;;;;;29.40;35.00;;;;;;5052684;28;20290;-65
2021/01/15 08:24:14;;;;;;;;;;;29.50;35.20;;;;;;5059651;28;19916;-68
2021/01/15 08:26:52;;;;;;;;;;;29.50;35.10;;;;;;5072990;28;19912;-66
2021/01/15 08:29:18;;;;;;;;;;;29.50;34.70;;;;;;5085262;28;19921;-65
2021/01/15 08:31:44;;;;;;;;;;;29.50;35.40;;;;;;5092718;28;19920;-61
2021/01/15 08:34:13;;;;;;;;;;;29.50;35.00;;;;;;5075944;28;19916;-66
2021/01/15 08:36:42;;;;;;;;;;;29.50;34.70;;;;;;5074692;28;20011;-67
2021/01/15 08:39:08;;;;;;;;;;;29.60;34.90;;;;;;5085173;28;19924;-66
2021/01/15 08:41:34;;;;;;;;;;;29.60;35.00;;;;;;5085261;28;19965;-66
2021/01/15 08:43:59;;;;;;;;;;;29.60;35.60;;;;;;5082421;28;19916;-67
2021/01/15 08:46:25;;;;;;;;;;;29.60;36.50;;;;;;5077627;28;20406;-66
2021/01/15 08:48:51;;;;;;;;;;;29.70;35.00;;;;;;5056950;28;19909;-65
2021/01/15 08:51:19;;;;;;;;;;;29.70;35.50;;;;;;5062205;28;19930;-62
2021/01/15 08:54:07;;;;;;;;;;;29.70;35.50;;;;;;5093785;28;19912;-64
2021/01/15 08:56:33;;;;;;;;;;;29.70;35.10;;;;;;5076486;28;19916;-65
2021/01/15 08:58:59;;;;;;;;;;;29.70;35.50;;;;;;5085694;28;19920;-65
2021/01/15 09:01:30;;;;;;;;;;;29.70;35.50;;;;;;5095206;28;19912;-63
2021/01/15 09:03:56;;;;;;;;;;;29.70;34.90;;;;;;5089118;28;19975;-63
2021/01/15 09:06:22;;;;;;;;;;;29.80;34.90;;;;;;5096452;28;19908;-66
2021/01/15 09:08:48;;;;;;;;;;;29.80;35.10;;;;;;5090771;28;20415;-65
2021/01/15 09:11:13;;;;;;;;;;;29.80;35.00;;;;;;5092563;28;20333;-65
2021/01/15 09:13:39;;;;;;;;;;;29.80;35.40;;;;;;5095629;28;19912;-65
2021/01/15 09:16:04;;;;;;;;;;;29.80;35.60;;;;;;5089253;28;20324;-64
2021/01/15 09:18:30;;;;;;;;;;;29.90;34.80;;;;;;5076206;28;19991;-65
2021/01/15 09:20:55;;;;;;;;;;;29.90;34.80;;;;;;5076110;28;19923;-67
2021/01/15 09:23:21;;;;;;;;;;;29.90;34.60;;;;;;5074155;28;19920;-69
2021/01/15 09:25:46;;;;;;;;;;;29.90;35.00;;;;;;5056309;28;19923;-64
2021/01/15 09:28:11;;;;;;;;;;;30.00;35.00;;;;;;5056090;28;19962;-58
2021/01/15 09:30:37;;;;;;;;;;;30.00;35.30;;;;;;5055791;28;19927;-64
2021/01/15 09:33:03;;;;;;;;;;;30.00;35.10;;;;;;5075420;28;19938;-65
2021/01/15 09:35:28;;;;;;;;;;;30.00;34.60;;;;;;5083455;28;19916;-64
2021/01/15 09:37:54;;;;;;;;;;;30.00;34.60;;;;;;5096048;28;19908;-68
2021/01/15 09:40:19;;;;;;;;;;;30.00;34.50;;;;;;5090086;28;19920;-60
2021/01/15 09:42:48;;;;;;;;;;;30.00;34.70;;;;;;5094290;28;19912;-59
2021/01/15 09:45:14;;;;;;;;;;;30.00;34.80;;;;;;5095782;28;20361;-68
2021/01/15 09:47:42;;;;;;;;;;;29.90;34.90;;;;;;5090837;28;20036;-62
2021/01/15 09:50:08;;;;;;;;;;;29.80;33.60;;;;;;5096229;28;19909;-68
2021/01/15 09:52:36;;;;;;;;;;;29.70;33.90;;;;;;5085849;28;19916;-64
2021/01/15 09:55:01;;;;;;;;;;;29.80;34.00;;;;;;5087200;28;19913;-61
2021/01/15 09:57:27;;;;;;;;;;;29.70;34.60;;;;;;5078015;28;19912;-61
2021/01/15 09:59:52;;;;;;;;;;;29.90;34.50;;;;;;5095758;28;20022;-61
2021/01/15 10:02:17;;;;;;;;;;;30.00;34.60;;;;;;5088693;28;19913;-61
2021/01/15 10:04:43;;;;;;;;;;;30.00;34.50;;;;;;5094001;28;19947;-62
2021/01/15 10:07:10;;;;;;;;;;;30.10;34.70;;;;;;5080112;28;20286;-70
2021/01/15 10:09:35;;;;;;;;;;;30.10;34.50;;;;;;5088348;28;19912;-62
2021/01/15 10:12:01;;;;;;;;;;;30.10;34.50;;;;;;5087489;28;19965;-64
2021/01/15 10:14:26;;;;;;;;;;;30.10;31.50;;;;;;5095530;28;20320;-62
2021/01/15 10:16:52;;;;;;;;;;;29.60;29.80;;;;;;5098343;28;19903;-78
2021/01/15 10:19:18;;;;;;;;;;;29.50;31.40;;;;;;5096260;28;19938;-74
2021/01/15 10:21:44;;;;;;;;;;;29.70;32.20;;;;;;5092812;28;20018;-66
2021/01/15 10:24:10;;;;;;;;;;;29.80;33.00;;;;;;5082650;28;19939;-63
2021/01/15 10:26:36;;;;;;;;;;;29.80;29.70;;;;;;5095594;28;20385;-70
2021/01/15 10:29:03;;;;;;;;;;;29.50;30.10;;;;;;5080375;28;20385;-70
2021/01/15 10:31:33;;;;;;;;;;;29.70;31.00;;;;;;5085526;28;19920;-73
2021/01/15 10:33:58;;;;;;;;;;;29.80;32.20;;;;;;5093334;28;19912;-67
2021/01/15 10:36:24;;;;;;;;;;;30.00;32.60;;;;;;5074883;28;19916;-70
2021/01/15 10:38:49;;;;;;;;;;;30.10;32.70;;;;;;5094251;28;19919;-68
2021/01/15 10:41:15;;;;;;;;;;;30.20;32.70;;;;;;5094713;28;20042;-65
2021/01/15 10:43:41;;;;;;;;;;;30.30;32.60;;;;;;5083024;28;19923;-68
2021/01/15 10:46:06;;;;;;;;;;;30.30;32.60;;;;;;5094772;28;19916;-70
2021/01/15 10:48:32;;;;;;;;;;;30.40;32.60;;;;;;5094687;28;19914;-63
2021/01/15 10:50:57;;;;;;;;;;;30.30;32.90;;;;;;5095129;28;19991;-69
2021/01/15 10:53:23;;;;;;;;;;;30.30;32.80;;;;;;5091286;28;19909;-69
2021/01/15 10:55:49;;;;;;;;;;;30.40;32.70;;;;;;5079389;28;19912;-75
2021/01/15 10:58:15;;;;;;;;;;;30.50;32.80;;;;;;5074534;28;19919;-66
2021/01/15 11:00:40;;;;;;;;;;;30.50;32.70;;;;;;5085636;28;19917;-65
2021/01/15 11:03:06;;;;;;;;;;;30.50;32.60;;;;;;5074090;28;19917;-66
2021/01/15 11:05:31;;;;;;;;;;;30.60;32.70;;;;;;5088088;28;20479;-64
2021/01/15 11:07:57;;;;;;;;;;;30.60;32.70;;;;;;5094270;28;19912;-63
2021/01/15 11:10:22;;;;;;;;;;;30.60;33.30;;;;;;5094145;28;19912;-60
2021/01/15 11:12:48;;;;;;;;;;;30.60;32.70;;;;;;5094016;28;20326;-63
2021/01/15 11:15:13;;;;;;;;;;;30.60;32.70;;;;;;5081936;28;19909;-60
2021/01/15 11:17:39;;;;;;;;;;;30.70;32.90;;;;;;5086090;28;19912;-65
2021/01/15 11:20:05;;;;;;;;;;;30.70;32.90;;;;;;5094089;28;20389;-60
2021/01/15 11:22:31;;;;;;;;;;;30.70;32.90;;;;;;5093919;28;19999;-72
2021/01/15 11:24:56;;;;;;;;;;;30.70;33.10;;;;;;5085968;28;20017;-74
2021/01/15 11:27:22;;;;;;;;;;;30.70;33.10;;;;;;5073834;28;19919;-67
2021/01/15 11:29:47;;;;;;;;;;;30.60;33.00;;;;;;5073847;28;20324;-63
2021/01/15 11:32:14;;;;;;;;;;;30.70;33.10;;;;;;5075715;28;19921;-65
2021/01/15 11:34:39;;;;;;;;;;;30.70;33.10;;;;;;5079919;28;19913;-70
2021/01/15 11:37:05;;;;;;;;;;;30.70;33.00;;;;;;5093624;28;19912;-70
2021/01/15 11:39:30;;;;;;;;;;;30.70;32.90;;;;;;5093677;28;20430;-71
2021/01/15 11:41:56;;;;;;;;;;;30.70;32.90;;;;;;5093560;28;19912;-63
2021/01/15 11:44:21;;;;;;;;;;;30.70;32.90;;;;;;5093838;28;19921;-67
2021/01/15 11:46:47;;;;;;;;;;;30.70;33.00;;;;;;5091917;28;20427;-68
2021/01/15 11:49:12;;;;;;;;;;;30.70;32.90;;;;;;5080748;28;19960;-68
2021/01/15 11:51:38;;;;;;;;;;;30.80;32.90;;;;;;5084765;28;19912;-63
2021/01/15 11:54:12;;;;;;;;;;;30.70;33.00;;;;;;5086989;28;19970;-67
2021/01/15 11:56:38;;;;;;;;;;;30.70;33.30;;;;;;5073278;28;20306;-78
2021/01/15 11:59:03;;;;;;;;;;;30.70;33.20;;;;;;5073170;28;19916;-70
2021/01/15 12:01:29;;;;;;;;;;;30.80;33.10;;;;;;5073265;28;20305;-65
2021/01/15 12:03:54;;;;;;;;;;;30.80;33.10;;;;;;5077733;28;19965;-67
2021/01/15 12:06:21;;;;;;;;;;;30.80;33.00;;;;;;5093691;28;19977;-75
2021/01/15 12:08:46;;;;;;;;;;;30.80;32.90;;;;;;5092002;28;19916;-70
2021/01/15 12:11:12;;;;;;;;;;;30.90;33.00;;;;;;5074112;28;20258;-66
2021/01/15 12:13:37;;;;;;;;;;;30.90;33.00;;;;;;5072749;28;19908;-62
2021/01/15 12:16:03;;;;;;;;;;;30.90;33.00;;;;;;5072706;28;19912;-60
2021/01/15 12:18:28;;;;;;;;;;;31.00;32.90;;;;;;5076183;28;19912;-61
2021/01/15 12:20:54;;;;;;;;;;;30.90;32.90;;;;;;5092238;28;19928;-65
2021/01/15 12:23:21;;;;;;;;;;;31.00;33.00;;;;;;5092858;28;19922;-69
2021/01/15 12:25:46;;;;;;;;;;;31.00;33.00;;;;;;5080429;28;19923;-72
2021/01/15 12:28:12;;;;;;;;;;;31.00;33.00;;;;;;5072601;28;19912;-61
2021/01/15 12:30:38;;;;;;;;;;;30.90;33.20;;;;;;5072555;28;20297;-58
2021/01/15 12:33:04;;;;;;;;;;;30.70;28.20;;;;;;5072855;28;20350;-57
2021/01/15 12:35:30;;;;;;;;;;;29.80;27.40;;;;;;5086016;28;19912;-63
2021/01/15 12:37:55;;;;;;;;;;;29.20;32.70;;;;;;5092825;28;19985;-66
2021/01/15 12:40:21;;;;;;;;;;;29.40;33.30;;;;;;5065216;28;19960;-62
2021/01/15 12:42:46;;;;;;;;;;;29.60;32.70;;;;;;5052637;28;19917;-71
2021/01/15 12:45:12;;;;;;;;;;;29.80;34.20;;;;;;5067397;28;19913;-70
2021/01/15 12:47:39;;;;;;;;;;;30.00;33.80;;;;;;5052895;28;19913;-72
2021/01/15 12:50:05;;;;;;;;;;;30.10;33.90;;;;;;5053766;28;19924;-72
2021/01/15 12:52:30;;;;;;;;;;;30.20;33.90;;;;;;5075779;28;19920;-73
2021/01/15 12:54:55;;;;;;;;;;;30.30;33.80;;;;;;5092770;28;19908;-69
2021/01/15 12:57:21;;;;;;;;;;;30.30;33.90;;;;;;5077425;28;19912;-62
2021/01/15 12:59:47;;;;;;;;;;;30.30;34.00;;;;;;5072419;28;19920;-60
2021/01/15 13:02:12;;;;;;;;;;;30.30;34.00;;;;;;5072868;28;19940;-69
2021/01/15 13:04:38;;;;;;;;;;;30.20;34.20;;;;;;5079247;28;19955;-74
2021/01/15 13:07:03;;;;;;;;;;;30.30;34.20;;;;;;5092707;28;19999;-64
2021/01/15 13:09:29;;;;;;;;;;;30.30;34.20;;;;;;5092801;28;19953;-66
2021/01/15 13:11:54;;;;;;;;;;;30.30;34.10;;;;;;5092773;28;19908;-65
2021/01/15 13:14:20;;;;;;;;;;;30.30;34.10;;;;;;5073736;28;19912;-70
2021/01/15 13:16:45;;;;;;;;;;;30.30;34.10;;;;;;5072289;28;19954;-74
2021/01/15 13:19:11;;;;;;;;;;;30.30;34.00;;;;;;5072553;28;19967;-66
2021/01/15 13:21:36;;;;;;;;;;;30.30;34.60;;;;;;5077887;28;20370;-71
2021/01/15 13:24:01;;;;;;;;;;;30.30;34.00;;;;;;5078264;28;19919;-70
2021/01/15 13:26:27;;;;;;;;;;;30.30;34.10;;;;;;5072271;28;20278;-64
2021/01/15 13:28:52;;;;;;;;;;;30.30;34.10;;;;;;5072326;28;19920;-67
2021/01/15 13:31:18;;;;;;;;;;;30.30;34.20;;;;;;5072340;28;20430;-75
2021/01/15 13:33:44;;;;;;;;;;;30.30;34.10;;;;;;5076190;28;19912;-64
2021/01/15 13:36:09;;;;;;;;;;;30.30;34.10;;;;;;5086804;28;19920;-67
2021/01/15 13:38:35;;;;;;;;;;;30.30;34.20;;;;;;5095521;28;19908;-65
2021/01/15 13:41:00;;;;;;;;;;;30.30;34.10;;;;;;5083386;28;19928;-61
2021/01/15 13:43:26;;;;;;;;;;;30.30;34.10;;;;;;5096142;28;20399;-67
2021/01/15 13:45:53;;;;;;;;;;;30.30;34.20;;;;;;5090934;28;20468;-69
2021/01/15 13:48:18;;;;;;;;;;;30.30;34.20;;;;;;5096119;28;19919;-62
2021/01/15 13:50:57;;;;;;;;;;;30.20;34.20;;;;;;5088599;28;19916;-63
2021/01/15 13:53:23;;;;;;;;;;;30.20;34.30;;;;;;5088425;28;19947;-62
2021/01/15 13:55:49;;;;;;;;;;;30.20;34.20;;;;;;5096882;28;19912;-73
2021/01/15 13:58:15;;;;;;;;;;;30.20;34.30;;;;;;5096859;28;19908;-64
2021/01/15 14:00:40;;;;;;;;;;;30.20;34.20;;;;;;5088537;28;20420;-71
2021/01/15 14:03:06;;;;;;;;;;;30.20;34.20;;;;;;5076636;28;20405;-64
2021/01/15 14:05:31;;;;;;;;;;;30.20;34.20;;;;;;5091742;28;19958;-61
2021/01/15 14:07:57;;;;;;;;;;;30.10;34.30;;;;;;5095758;28;19912;-60
2021/01/15 14:10:22;;;;;;;;;;;30.10;34.50;;;;;;5090678;28;19943;-60
2021/01/15 14:12:48;;;;;;;;;;;30.10;34.30;;;;;;5075136;28;19920;-61
2021/01/15 14:15:14;;;;;;;;;;;30.10;34.30;;;;;;5078576;28;19923;-61